Time;durP1;ratioP1;P1;durP2;ratioP2;P2;SDS_P1;SDS_P2;PMS_P1;PMS_P2;Temp;Humidity;BMP_temperature;BMP_pressure;BME280_temperature;BME280_humidity;BME280_pressure;Samples;Min_cycle;Max_cycle;Signal;HPM_P1;HPM_P2
2022/04/15 00:02:14;;;;;;;19.77;14.13;;;;;;;15.62;63.10;101671.34;5005046;28;96909;-68
2022/04/15 00:04:40;;;;;;;23.02;16.20;;;;;;;15.98;62.04;101677.78;4994222;28;99333;-69
2022/04/15 00:07:07;;;;;;;21.70;15.23;;;;;;;16.04;61.44;101679.31;5004016;28;100703;-69
2022/04/15 00:09:34;;;;;;;24.17;16.42;;;;;;;15.72;63.03;101675.34;5000955;28;97897;-69
2022/04/15 00:12:06;;;;;;;18.98;15.73;;;;;;;15.84;62.11;101672.16;4998953;28;96843;-68
2022/04/15 00:14:33;;;;;;;19.63;15.05;;;;;;;16.01;61.64;101679.47;4996422;28;98116;-69
2022/04/15 00:17:01;;;;;;;23.90;15.32;;;;;;;15.57;62.52;101683.97;5007874;28;98754;-69
2022/04/15 00:19:28;;;;;;;24.05;15.05;;;;;;;15.61;62.73;101677.59;5000341;28;97814;-69
2022/04/15 00:21:54;;;;;;;25.17;14.38;;;;;;;15.47;62.52;101671.03;5004761;28;97074;-68
2022/04/15 00:24:21;;;;;;;23.20;15.65;;;;;;;15.93;61.53;101669.13;4997981;28;102518;-68
2022/04/15 00:26:47;;;;;;;26.02;15.18;;;;;;;15.78;61.84;101675.97;4998740;28;98979;-68
2022/04/15 00:29:15;;;;;;;22.40;14.68;;;;;;;15.81;61.62;101677.66;5005443;28;97310;-67
2022/04/15 00:31:42;;;;;;;20.15;14.32;;;;;;;14.99;63.73;101672.97;4999991;28;96830;-68
2022/04/15 00:34:09;;;;;;;20.17;14.90;;;;;;;15.64;62.17;101674.81;4996081;28;99258;-69
2022/04/15 00:36:36;;;;;;;19.98;13.73;;;;;;;15.71;61.30;101676.28;4994922;28;97733;-69
2022/04/15 00:39:03;;;;;;;21.08;13.05;;;;;;;15.85;60.64;101673.91;4999987;28;96802;-69
2022/04/15 00:41:29;;;;;;;19.85;12.70;;;;;;;15.45;61.39;101677.31;5001546;28;96879;-68
2022/04/15 00:43:56;;;;;;;20.25;12.20;;;;;;;15.07;62.85;101676.22;4999256;28;98773;-69
2022/04/15 00:46:23;;;;;;;17.67;12.38;;;;;;;15.11;62.21;101672.50;4999372;28;98896;-68
2022/04/15 00:48:49;;;;;;;18.90;12.60;;;;;;;15.61;61.14;101674.94;4998074;28;96723;-68
2022/04/15 00:51:17;;;;;;;15.68;11.85;;;;;;;15.15;61.45;101663.47;4998403;28;98797;-68
2022/04/15 00:53:46;;;;;;;20.40;12.02;;;;;;;15.32;61.17;101671.63;4995170;28;98919;-69
2022/04/15 00:56:13;;;;;;;16.58;10.50;;;;;;;15.44;60.40;101664.94;4994394;28;101340;-69
2022/04/15 00:58:41;;;;;;;13.88;10.27;;;;;;;15.22;59.87;101666.75;4999643;28;96846;-69
2022/04/15 01:01:08;;;;;;;11.93;9.73;;;;;;;15.60;58.77;101666.09;4997127;28;96970;-69
2022/04/15 01:03:35;;;;;;;17.08;10.15;;;;;;;15.02;59.32;101668.41;4998744;28;99465;-68
2022/04/15 01:06:05;;;;;;;18.13;10.13;;;;;;;15.08;59.82;101673.50;5001974;28;100682;-68
2022/04/15 01:08:38;;;;;;;15.52;9.45;;;;;;;14.66;60.81;101684.00;4999219;28;96854;-68
2022/04/15 01:11:05;;;;;;;14.63;9.23;;;;;;;14.95;59.25;101680.22;5001040;28;96757;-69
2022/04/15 01:13:35;;;;;;;13.35;9.27;;;;;;;15.08;57.95;101680.63;5000589;28;98950;-69
2022/04/15 01:16:02;;;;;;;12.27;8.35;;;;;;;15.27;57.74;101676.28;4999336;28;98856;-69
2022/04/15 01:18:29;;;;;;;12.13;8.70;;;;;;;15.08;57.92;101680.63;5002118;28;96786;-69
2022/04/15 01:20:55;;;;;;;14.43;9.10;;;;;;;15.60;56.95;101686.53;5000798;28;97746;-69
2022/04/15 01:23:23;;;;;;;17.27;8.75;;;;;;;15.22;57.50;101685.41;5004374;28;99076;-68
2022/04/15 01:25:50;;;;;;;19.10;8.68;;;;;;;15.20;57.31;101688.13;4999725;28;99075;-68
2022/04/15 01:28:19;;;;;;;13.63;8.05;;;;;;;14.74;58.20;101694.34;5007165;28;96928;-68
2022/04/15 01:30:46;;;;;;;17.52;7.97;;;;;;;14.55;58.25;101694.16;5003699;28;96827;-68
2022/04/15 01:33:13;;;;;;;11.52;8.30;;;;;;;14.25;59.63;101703.19;5004851;28;97819;-69
2022/04/15 01:35:39;;;;;;;9.57;7.20;;;;;;;14.38;59.09;101707.19;5001900;28;99319;-69
2022/04/15 01:38:10;;;;;;;10.73;7.47;;;;;;;14.31;59.28;101703.84;5000115;28;96820;-68
2022/04/15 01:40:39;;;;;;;10.93;7.47;;;;;;;14.36;58.83;101709.03;5002035;28;96768;-70
2022/04/15 01:43:06;;;;;;;12.40;7.93;;;;;;;14.46;57.92;101709.56;5001789;28;99056;-70
2022/04/15 01:45:33;;;;;;;12.70;7.45;;;;;;;14.07;59.10;101712.69;5005007;28;99180;-70
2022/04/15 01:47:59;;;;;;;16.88;8.38;;;;;;;14.47;57.83;101706.88;5003029;28;96872;-71
2022/04/15 01:50:28;;;;;;;17.48;8.18;;;;;;;14.36;58.08;101719.66;5000041;28;97013;-70
2022/04/15 01:52:54;;;;;;;11.65;7.68;;;;;;;13.81;57.89;101713.59;5004816;28;98981;-70
2022/04/15 01:55:20;;;;;;;14.60;7.88;;;;;;;14.11;57.28;101713.47;4998689;28;99046;-70
2022/04/15 01:57:48;;;;;;;10.88;7.20;;;;;;;14.15;55.86;101715.09;5003708;28;96669;-70
2022/04/15 02:00:15;;;;;;;13.75;7.72;;;;;;;13.85;56.09;101723.19;5000594;28;96805;-69
2022/04/15 02:02:41;;;;;;;11.00;7.30;;;;;;;13.79;56.55;101723.38;5002344;28;99176;-70
2022/04/15 02:05:08;;;;;;;12.48;6.90;;;;;;;13.86;56.54;101722.25;5004268;28;99522;-71
2022/04/15 02:07:35;;;;;;;12.23;7.43;;;;;;;14.33;54.98;101720.63;5002051;28;97921;-70
2022/04/15 02:10:01;;;;;;;13.57;7.55;;;;;;;14.12;55.16;101720.50;5006656;28;98505;-69
2022/04/15 02:12:27;;;;;;;13.30;6.45;;;;;;;14.28;54.58;101724.38;5006965;28;99717;-71
2022/04/15 02:14:55;;;;;;;12.07;6.50;;;;;;;14.56;53.85;101726.97;4999756;28;99164;-70
2022/04/15 02:17:22;;;;;;;12.77;8.25;;;;;;;13.79;55.10;101714.53;5000202;28;99455;-69
2022/04/15 02:19:48;;;;;;;15.20;6.65;;;;;;;13.89;54.81;101724.84;5005131;28;97611;-69
2022/04/15 02:22:15;;;;;;;15.20;7.70;;;;;;;13.25;56.28;101722.53;5001268;28;98924;-70
2022/04/15 02:24:41;;;;;;;9.70;7.25;;;;;;;13.50;56.25;101726.16;5001487;28;99372;-70
2022/04/15 02:27:08;;;;;;;14.80;7.10;;;;;;;13.72;55.16;101726.31;4996598;28;96915;-71
2022/04/15 02:29:35;;;;;;;15.77;7.85;;;;;;;13.66;55.62;101726.50;4998942;28;97146;-70
2022/04/15 02:32:03;;;;;;;11.32;6.82;;;;;;;14.01;54.42;101717.34;4993827;28;98861;-70
2022/04/15 02:34:29;;;;;;;13.07;7.43;;;;;;;14.22;54.53;101724.59;5003252;28;99221;-71
2022/04/15 02:36:56;;;;;;;17.92;7.97;;;;;;;13.24;55.95;101718.13;5000186;28;97032;-70
2022/04/15 02:39:22;;;;;;;13.52;7.55;;;;;;;13.24;56.49;101720.78;4994563;28;96984;-68
2022/04/15 02:41:51;;;;;;;17.15;7.70;;;;;;;13.43;55.74;101728.13;5002730;28;97861;-69
2022/04/15 02:44:18;;;;;;;16.33;7.38;;;;;;;12.85;57.67;101720.19;4995973;28;98748;-69
2022/04/15 02:46:44;;;;;;;9.73;6.78;;;;;;;13.22;56.52;101727.91;5005580;28;98748;-69
2022/04/15 02:49:12;;;;;;;12.98;7.50;;;;;;;13.11;55.91;101722.91;5007526;28;98854;-69
2022/04/15 02:51:38;;;;;;;14.95;7.85;;;;;;;13.37;55.86;101728.31;5000839;28;98903;-69
2022/04/15 02:54:05;;;;;;;12.60;7.25;;;;;;;13.44;55.40;101726.34;4996712;28;101878;-69
2022/04/15 02:56:31;;;;;;;17.27;7.32;;;;;;;13.26;56.29;101726.94;5004105;28;98475;-71
2022/04/15 02:58:58;;;;;;;15.45;7.22;;;;;;;13.72;54.84;101732.47;4999724;28;96866;-69
2022/04/15 03:01:24;;;;;;;11.55;6.90;;;;;;;13.25;55.72;101736.66;4999291;28;98953;-70
2022/04/15 03:03:50;;;;;;;12.45;6.80;;;;;;;13.64;54.71;101736.31;5001254;28;98954;-69
2022/04/15 03:06:18;;;;;;;11.00;6.60;;;;;;;13.85;54.46;101743.56;4999002;28;98586;-69
2022/04/15 03:08:44;;;;;;;8.77;6.70;;;;;;;13.39;54.98;101737.09;4998418;28;97685;-69
2022/04/15 03:11:11;;;;;;;9.55;6.32;;;;;;;13.05;56.14;101731.94;4996432;28;99194;-70
2022/04/15 03:13:38;;;;;;;9.23;6.50;;;;;;;13.86;54.29;101740.00;4999120;28;98854;-70
2022/04/15 03:16:06;;;;;;;9.90;6.68;;;;;;;13.47;54.82;101742.16;5001631;28;96804;-70
2022/04/15 03:18:32;;;;;;;11.60;6.47;;;;;;;13.65;54.44;101733.63;5001189;28;99318;-70
2022/04/15 03:20:59;;;;;;;9.13;6.10;;;;;;;13.50;54.96;101734.09;4997138;28;99537;-69
2022/04/15 03:23:27;;;;;;;11.55;7.10;;;;;;;13.41;55.46;101743.22;5005051;28;98889;-70
2022/04/15 03:25:53;;;;;;;12.55;6.65;;;;;;;13.45;55.86;101738.69;5003125;28;96969;-70
2022/04/15 03:28:20;;;;;;;11.40;7.00;;;;;;;13.28;56.35;101741.00;4998183;28;96927;-70
2022/04/15 03:30:46;;;;;;;18.60;7.35;;;;;;;13.41;55.82;101742.34;4996275;28;99292;-70
2022/04/15 03:33:13;;;;;;;12.70;7.95;;;;;;;13.61;55.50;101739.94;4998259;28;98878;-71
2022/04/15 03:35:39;;;;;;;16.45;8.98;;;;;;;13.69;55.27;101742.34;5006208;28;97388;-69
2022/04/15 03:38:06;;;;;;;13.50;8.07;;;;;;;13.49;55.70;101746.50;4999257;28;96856;-70
2022/04/15 03:40:34;;;;;;;12.25;7.45;;;;;;;13.73;55.16;101743.97;4999136;28;99449;-70
2022/04/15 03:43:00;;;;;;;12.98;8.02;;;;;;;13.35;56.06;101747.84;5000194;28;98855;-70
2022/04/15 03:45:27;;;;;;;13.85;8.57;;;;;;;13.05;57.01;101742.56;4995374;28;97622;-68
2022/04/15 03:47:55;;;;;;;16.00;8.20;;;;;;;13.05;57.32;101739.91;5001644;28;97989;-69
2022/04/15 03:50:21;;;;;;;12.27;8.13;;;;;;;13.37;56.31;101738.06;4995711;28;98926;-69
2022/04/15 03:52:48;;;;;;;16.73;8.90;;;;;;;13.42;56.23;101746.75;4997183;28;97662;-69
2022/04/15 03:55:16;;;;;;;14.35;8.27;;;;;;;13.03;57.58;101746.16;4999616;28;96892;-70
2022/04/15 03:57:45;;;;;;;15.52;8.50;;;;;;;13.09;57.56;101744.19;4997047;28;97106;-70
2022/04/15 04:00:15;;;;;;;14.95;8.50;;;;;;;13.68;56.15;101746.78;4997023;28;98899;-71
2022/04/15 04:02:44;;;;;;;16.55;8.73;;;;;;;13.41;56.51;101751.19;5003468;28;99165;-70
2022/04/15 04:05:12;;;;;;;15.90;9.07;;;;;;;12.90;57.52;101760.69;4998943;28;97001;-70
2022/04/15 04:07:39;;;;;;;13.85;8.50;;;;;;;13.13;57.55;101758.25;5004134;28;97870;-69
2022/04/15 04:10:06;;;;;;;13.13;9.07;;;;;;;13.01;57.78;101764.75;4998406;28;99443;-70
2022/04/15 04:12:34;;;;;;;13.20;8.95;;;;;;;12.61;59.00;101764.16;5000967;28;99027;-70
2022/04/15 04:15:02;;;;;;;13.35;9.40;;;;;;;13.24;57.24;101765.91;5003965;28;96807;-70
2022/04/15 04:17:28;;;;;;;16.77;9.65;;;;;;;12.87;58.35;101761.63;4999291;28;96953;-69
2022/04/15 04:19:54;;;;;;;13.75;9.23;;;;;;;12.57;58.62;101770.47;5000812;28;98907;-70
2022/04/15 04:22:21;;;;;;;14.45;9.27;;;;;;;12.91;58.73;101771.25;4994188;28;98144;-71
2022/04/15 04:24:47;;;;;;;14.88;8.90;;;;;;;12.99;57.87;101771.91;4998125;28;97644;-70
2022/04/15 04:27:14;;;;;;;15.90;9.13;;;;;;;13.27;57.45;101769.31;4994550;28;98353;-72
2022/04/15 04:29:40;;;;;;;14.77;8.70;;;;;;;13.02;57.26;101776.25;5001059;28;99026;-70
2022/04/15 04:32:09;;;;;;;13.20;9.38;;;;;;;13.12;57.68;101777.72;5000350;28;98949;-71
2022/04/15 04:34:35;;;;;;;11.73;8.50;;;;;;;13.05;57.84;101786.78;4999214;28;98883;-71
2022/04/15 04:37:01;;;;;;;13.98;9.52;;;;;;;13.09;57.43;101789.28;5001482;28;97372;-71
2022/04/15 04:39:29;;;;;;;15.98;8.77;;;;;;;13.00;57.41;101780.72;4998719;28;99312;-71
2022/04/15 04:41:56;;;;;;;15.50;9.13;;;;;;;12.81;58.11;101796.28;4995406;28;101814;-70
2022/04/15 04:44:23;;;;;;;15.15;8.65;;;;;;;12.90;57.90;101785.44;4996987;28;96855;-70
2022/04/15 04:46:49;;;;;;;13.00;8.77;;;;;;;13.46;56.49;101791.72;4992008;28;98968;-71
2022/04/15 04:49:17;;;;;;;12.20;8.23;;;;;;;13.25;57.23;101796.84;4999661;28;98235;-70
2022/04/15 04:51:44;;;;;;;14.70;8.18;;;;;;;13.30;56.94;101792.25;4994066;28;97733;-71
2022/04/15 04:54:11;;;;;;;13.65;8.43;;;;;;;13.27;56.33;101797.66;4998897;28;97858;-70
2022/04/15 04:56:37;;;;;;;12.95;8.68;;;;;;;13.19;57.36;101800.56;5006842;28;97870;-70
2022/04/15 04:59:03;;;;;;;12.30;8.30;;;;;;;12.90;58.23;101798.69;5007634;28;98957;-68
2022/04/15 05:01:30;;;;;;;12.70;8.27;;;;;;;13.28;57.00;101808.22;5007025;28;98131;-69
2022/04/15 05:03:56;;;;;;;11.75;7.90;;;;;;;13.56;56.41;101805.59;4999469;28;97793;-68
2022/04/15 05:06:24;;;;;;;10.05;7.80;;;;;;;13.66;56.02;101806.19;5006970;28;96901;-68
2022/04/15 05:08:51;;;;;;;13.38;8.80;;;;;;;12.83;57.95;101806.88;4994986;28;99892;-69
2022/04/15 05:11:17;;;;;;;11.57;8.20;;;;;;;12.70;58.51;101809.00;4999305;28;98806;-70
2022/04/15 05:13:44;;;;;;;12.98;8.43;;;;;;;13.37;56.93;101815.06;4994831;28;96868;-70
2022/04/15 05:16:10;;;;;;;16.15;7.90;;;;;;;12.93;57.54;101808.38;5004313;28;96930;-69
2022/04/15 05:18:37;;;;;;;16.63;7.93;;;;;;;13.32;57.15;101812.53;5008942;28;98754;-70
2022/04/15 05:21:03;;;;;;;9.98;7.70;;;;;;;13.18;57.35;101816.53;5004630;28;98850;-69
2022/04/15 05:23:31;;;;;;;10.48;7.07;;;;;;;13.52;56.84;101814.59;5001034;28;98651;-69
2022/04/15 05:25:57;;;;;;;10.07;7.30;;;;;;;13.35;56.33;101827.50;4998937;28;98667;-69
2022/04/15 05:28:23;;;;;;;11.50;7.20;;;;;;;13.52;56.06;101819.91;5002271;28;99038;-68
2022/04/15 05:30:50;;;;;;;11.82;7.10;;;;;;;14.03;54.47;101816.50;5002536;28;99004;-70
2022/04/15 05:33:16;;;;;;;10.88;7.35;;;;;;;12.97;57.28;101825.94;4998220;28;97709;-70
2022/04/15 05:35:42;;;;;;;14.05;7.75;;;;;;;13.27;56.88;101821.53;5002894;28;97638;-70
2022/04/15 05:38:09;;;;;;;12.05;7.70;;;;;;;13.81;55.47;101829.59;5004484;28;99130;-70
2022/04/15 05:40:36;;;;;;;13.02;8.00;;;;;;;13.46;56.10;101831.56;4999111;28;97689;-70
2022/04/15 05:43:03;;;;;;;12.55;7.53;;;;;;;13.67;55.84;101822.06;5005900;28;97433;-70
2022/04/15 05:45:29;;;;;;;11.38;7.35;;;;;;;13.40;56.16;101830.88;4998728;28;98942;-70
2022/04/15 05:47:57;;;;;;;14.43;7.85;;;;;;;13.51;56.14;101834.97;4999547;28;98920;-70
2022/04/15 05:50:24;;;;;;;16.13;7.65;;;;;;;13.76;55.30;101837.72;4992769;28;98832;-70
2022/04/15 05:52:51;;;;;;;14.52;7.30;;;;;;;13.85;55.25;101839.19;4999611;28;97692;-68
2022/04/15 05:55:18;;;;;;;10.05;6.85;;;;;;;13.81;55.28;101846.41;4999940;28;99402;-70
2022/04/15 05:57:46;;;;;;;9.63;6.95;;;;;;;13.36;56.12;101850.47;4996973;28;98579;-68
2022/04/15 06:00:13;;;;;;;11.10;8.38;;;;;;;13.20;56.99;101844.72;5002303;28;99490;-68
2022/04/15 06:02:41;;;;;;;9.68;7.68;;;;;;;13.30;56.83;101851.53;5000957;28;99089;-69
2022/04/15 06:05:08;;;;;;;14.05;8.30;;;;;;;13.32;56.68;101847.06;5000248;28;96830;-69
2022/04/15 06:07:35;;;;;;;11.27;7.82;;;;;;;13.27;56.77;101856.03;5001618;28;99150;-68
2022/04/15 06:10:02;;;;;;;17.48;7.25;;;;;;;13.26;57.12;101860.47;5005086;28;98776;-70
2022/04/15 06:12:54;;;;;;;10.45;6.80;;;;;;;13.63;56.09;101860.28;5003973;28;96878;-69
2022/04/15 06:15:23;;;;;;;11.18;6.72;;;;;;;13.90;55.17;101856.78;4998648;28;97295;-69
2022/04/15 06:17:50;;;;;;;9.85;7.13;;;;;;;14.42;53.76;101864.84;5006718;28;99321;-70
2022/04/15 06:20:17;;;;;;;11.55;7.13;;;;;;;13.67;55.33;101867.22;5000075;28;100707;-69
2022/04/15 06:22:44;;;;;;;12.23;7.63;;;;;;;14.34;53.43;101862.41;4996955;28;97963;-69
2022/04/15 06:25:10;;;;;;;10.73;7.13;;;;;;;14.06;54.29;101858.91;5004166;28;97600;-70
2022/04/15 06:27:37;;;;;;;11.25;7.38;;;;;;;13.80;54.56;101868.59;4998495;28;99111;-69
2022/04/15 06:30:05;;;;;;;11.40;7.15;;;;;;;13.82;54.68;101866.75;4999265;28;98790;-68
2022/04/15 06:32:32;;;;;;;10.77;6.95;;;;;;;13.90;54.38;101866.53;5002755;28;97552;-68
2022/04/15 06:34:59;;;;;;;10.18;7.13;;;;;;;14.49;53.15;101864.59;5003889;28;97098;-67
2022/04/15 06:37:25;;;;;;;12.65;8.15;;;;;;;14.77;52.11;101858.34;4997244;28;99364;-70
2022/04/15 06:39:52;;;;;;;12.13;8.95;;;;;;;14.80;52.16;101867.06;5006492;28;99966;-71
2022/04/15 06:42:21;;;;;;;13.40;6.85;;;;;;;14.88;51.32;101866.78;5004716;28;98802;-69
2022/04/15 06:44:48;;;;;;;13.65;7.07;;;;;;;14.89;51.55;101873.84;4993909;28;96897;-68
2022/04/15 06:47:15;;;;;;;14.05;6.90;;;;;;;14.00;53.86;101873.28;5013154;28;99174;-69
2022/04/15 06:49:42;;;;;;;10.30;6.53;;;;;;;14.11;53.63;101876.44;5005698;28;98626;-69
2022/04/15 06:52:09;;;;;;;10.93;7.00;;;;;;;13.78;54.88;101873.09;5001913;28;97491;-69
2022/04/15 06:54:35;;;;;;;10.40;7.22;;;;;;;13.71;55.06;101874.19;5005821;28;98774;-69
2022/04/15 06:57:02;;;;;;;10.18;6.97;;;;;;;14.14;53.94;101867.50;5003653;28;98643;-69
2022/04/15 06:59:28;;;;;;;11.68;6.85;;;;;;;14.07;54.01;101872.16;4996550;28;98975;-69
2022/04/15 07:01:55;;;;;;;10.90;6.53;;;;;;;14.13;54.31;101879.06;4998460;28;97388;-68
2022/04/15 07:04:22;;;;;;;15.73;6.93;;;;;;;13.31;55.74;101873.63;5001223;28;97822;-68
2022/04/15 07:06:50;;;;;;;11.73;6.60;;;;;;;14.23;53.92;101877.88;5001970;28;99125;-68
2022/04/15 07:09:17;;;;;;;12.55;6.85;;;;;;;14.49;53.02;101880.56;4993973;28;99217;-68
2022/04/15 07:11:44;;;;;;;10.60;6.88;;;;;;;14.25;53.17;101881.31;4997118;28;98748;-70
2022/04/15 07:14:10;;;;;;;12.35;6.93;;;;;;;14.51;52.65;101883.13;4998760;28;97067;-69
2022/04/15 07:16:37;;;;;;;14.63;8.93;;;;;;;14.57;52.62;101880.31;5004280;28;99079;-71
2022/04/15 07:19:04;;;;;;;13.77;7.25;;;;;;;14.07;54.04;101879.25;5003787;28;99564;-71
2022/04/15 07:21:31;;;;;;;12.38;6.95;;;;;;;14.59;52.39;101892.59;4997967;28;98384;-69
2022/04/15 07:23:58;;;;;;;8.65;6.65;;;;;;;14.03;53.63;101891.78;4993502;28;98848;-69
2022/04/15 07:26:25;;;;;;;15.02;6.80;;;;;;;14.44;53.07;101898.44;4993506;28;100313;-70
2022/04/15 07:28:52;;;;;;;12.48;7.10;;;;;;;14.33;53.34;101895.22;4991608;28;98773;-69
2022/04/15 07:31:18;;;;;;;11.30;6.85;;;;;;;13.89;54.03;101900.19;4997344;28;97025;-71
2022/04/15 07:33:46;;;;;;;10.40;6.55;;;;;;;13.42;55.38;101906.03;5000012;28;97747;-70
2022/04/15 07:38:53;;;;;;;11.75;6.97;;;;;;;13.81;54.65;101910.19;4992261;28;98915;-70
2022/04/15 07:41:20;;;;;;;12.82;6.65;;;;;;;14.47;53.28;101910.78;4992989;28;98935;-68
2022/04/15 07:43:48;;;;;;;11.75;7.07;;;;;;;14.34;53.29;101907.63;4996017;28;97615;-71
2022/04/15 07:46:15;;;;;;;11.70;7.38;;;;;;;14.18;53.16;101901.91;4993224;28;99307;-70
2022/04/15 07:48:41;;;;;;;10.63;6.43;;;;;;;14.27;53.56;101908.72;4999585;28;98798;-68
2022/04/15 07:51:08;;;;;;;36.50;7.50;;;;;;;13.73;53.90;101913.97;4996025;28;97013;-70
2022/04/15 07:53:34;;;;;;;13.35;6.82;;;;;;;13.88;54.35;101914.38;4991806;28;97075;-69
2022/04/15 07:56:01;;;;;;;13.05;7.10;;;;;;;14.45;52.96;101913.47;4997470;28;98996;-69
2022/04/15 07:58:29;;;;;;;11.80;7.07;;;;;;;13.68;54.71;101910.59;4997529;28;101909;-70
2022/04/15 08:00:59;;;;;;;13.68;7.60;;;;;;;13.50;55.22;101915.53;4994211;28;96827;-69
2022/04/15 08:03:26;;;;;;;10.45;6.70;;;;;;;13.98;54.35;101916.78;4985735;28;100290;-70
2022/04/15 08:05:53;;;;;;;11.35;6.95;;;;;;;14.30;53.84;101916.63;4997756;28;99115;-71
2022/04/15 08:08:20;;;;;;;11.90;6.95;;;;;;;14.14;53.70;101915.34;4989853;28;97657;-71
2022/04/15 08:10:48;;;;;;;12.52;7.82;;;;;;;14.37;53.83;101918.16;4988728;28;97481;-71
2022/04/15 08:13:14;;;;;;;13.98;6.95;;;;;;;14.13;54.44;101921.59;4988153;28;97373;-71
2022/04/15 08:15:42;;;;;;;12.77;7.15;;;;;;;13.95;55.02;101926.56;4997480;28;98953;-71
2022/04/15 08:18:09;;;;;;;11.73;7.72;;;;;;;13.81;55.46;101928.78;4993779;28;99563;-70
2022/04/15 08:20:35;;;;;;;11.55;7.03;;;;;;;13.71;55.20;101931.75;4995032;28;97327;-71
2022/04/15 08:23:03;;;;;;;11.77;6.97;;;;;;;13.47;56.23;101928.03;4992191;28;97434;-71
2022/04/15 08:25:30;;;;;;;11.18;6.90;;;;;;;13.76;55.22;101928.06;4993603;28;98945;-71
2022/04/15 08:27:57;;;;;;;11.52;7.78;;;;;;;14.01;54.30;101927.28;4992472;28;98819;-70
2022/04/15 08:30:24;;;;;;;12.27;7.55;;;;;;;14.06;54.72;101934.19;4989011;28;97680;-71
2022/04/15 08:32:53;;;;;;;13.00;7.32;;;;;;;14.65;52.84;101936.75;4993020;28;97383;-70
2022/04/15 08:35:20;;;;;;;12.88;7.22;;;;;;;13.12;56.59;101942.25;4998660;28;99089;-69
2022/04/15 08:37:46;;;;;;;11.63;7.07;;;;;;;13.80;55.42;101942.97;4986701;28;99025;-70
2022/04/15 08:40:13;;;;;;;12.35;6.75;;;;;;;13.91;54.85;101943.50;4993606;28;99352;-70
2022/04/15 08:42:40;;;;;;;15.40;7.53;;;;;;;14.28;53.73;101940.59;4998582;28;96973;-71
2022/04/15 08:45:08;;;;;;;15.65;7.72;;;;;;;14.41;53.38;101946.41;4998533;28;99050;-72
2022/04/15 08:47:34;;;;;;;12.57;7.50;;;;;;;14.55;53.04;101946.84;4994859;28;99239;-71
2022/04/15 08:50:03;;;;;;;11.77;7.47;;;;;;;14.34;53.35;101947.50;4999028;28;97227;-71
2022/04/15 08:52:30;;;;;;;13.00;7.82;;;;;;;13.55;55.78;101953.44;4994195;28;97685;-70
2022/04/15 08:54:58;;;;;;;11.63;7.80;;;;;;;13.52;55.92;101958.00;4997720;28;98310;-70
2022/04/15 08:57:25;;;;;;;17.27;9.45;;;;;;;14.24;53.64;101959.34;4990324;28;99940;-70
2022/04/15 08:59:53;;;;;;;12.55;8.00;;;;;;;14.23;54.04;101958.50;4989654;28;98335;-69
2022/04/15 09:02:32;;;;;;;11.23;7.53;;;;;;;13.89;54.82;101956.00;4995854;28;97930;-71
2022/04/15 09:04:59;;;;;;;11.82;7.80;;;;;;;14.02;54.81;101969.78;4991181;28;98811;-69
2022/04/15 09:07:30;;;;;;;14.68;7.65;;;;;;;14.38;53.75;101961.59;4991446;28;98087;-69
2022/04/15 09:09:57;;;;;;;13.35;7.85;;;;;;;14.19;54.32;101970.13;4989809;28;97153;-68
2022/04/15 09:12:27;;;;;;;17.13;8.15;;;;;;;14.18;54.37;101972.81;4993655;28;97839;-69
2022/04/15 09:14:55;;;;;;;14.93;7.65;;;;;;;13.87;55.49;101971.09;4993996;28;98649;-69
2022/04/15 09:17:23;;;;;;;11.93;7.05;;;;;;;13.29;58.09;101978.97;5002230;28;98814;-70
2022/04/15 09:19:53;;;;;;;11.45;6.97;;;;;;;13.51;57.49;101983.66;4990678;28;96828;-70
2022/04/15 09:22:19;;;;;;;15.32;7.63;;;;;;;13.92;56.33;101978.91;5002153;28;97290;-69
2022/04/15 09:24:50;;;;;;;12.50;7.38;;;;;;;14.11;55.21;101980.09;5003290;28;98863;-70
2022/04/15 09:27:18;;;;;;;13.98;7.20;;;;;;;13.71;56.25;101991.06;4998260;28;99461;-70
2022/04/15 09:29:44;;;;;;;18.50;7.68;;;;;;;13.80;55.95;101985.47;4998597;28;97708;-70
2022/04/15 09:32:14;;;;;;;16.30;8.40;;;;;;;13.79;57.48;101994.34;5002692;28;97605;-70
2022/04/15 09:34:53;;;;;;;10.50;7.03;;;;;;;13.79;57.85;101993.47;4992715;28;99034;-70
2022/04/15 09:37:21;;;;;;;15.40;7.55;;;;;;;14.22;56.87;101993.97;4994314;28;97907;-71
2022/04/15 09:42:47;;;;;;;13.10;7.50;;;;;;;13.86;57.25;102001.22;5061961;27;98242;-71
2022/04/15 09:45:15;;;;;;;14.07;6.43;;;;;;;13.69;58.08;102002.66;5044106;27;96749;-69
2022/04/15 09:47:42;;;;;;;10.02;6.90;;;;;;;12.90;60.32;102000.31;5038830;27;98985;-70
2022/04/15 09:50:22;;;;;;;10.10;6.40;;;;;;;13.61;58.57;102002.84;5040287;27;100645;-72
2022/04/15 09:52:49;;;;;;;12.30;6.75;;;;;;;13.80;58.60;101998.75;5036769;27;98698;-69
2022/04/15 09:55:18;;;;;;;10.98;6.88;;;;;;;13.92;58.39;102001.06;5039001;27;97442;-70
2022/04/15 09:57:48;;;;;;;10.75;6.95;;;;;;;14.22;57.88;102001.94;5041707;27;101617;-71
2022/04/15 10:00:16;;;;;;;15.30;10.70;;;;;;;14.08;58.06;102006.78;5042450;27;98954;-70
2022/04/15 10:02:44;;;;;;;14.10;8.27;;;;;;;13.64;59.52;102005.44;5039344;27;98747;-70
2022/04/15 10:05:13;;;;;;;11.43;7.25;;;;;;;13.32;61.37;102013.44;5043874;27;97836;-70
2022/04/15 10:07:40;;;;;;;10.90;7.75;;;;;;;13.85;60.20;102019.88;5044794;27;98608;-70
2022/04/15 10:10:09;;;;;;;9.80;6.80;;;;;;;13.63;60.41;102013.44;5040523;27;98284;-70
2022/04/15 10:12:39;;;;;;;10.80;7.63;;;;;;;13.76;60.62;102015.72;5039761;27;99043;-69
2022/04/15 10:15:09;;;;;;;11.77;7.35;;;;;;;14.02;59.49;102020.25;5042756;27;97815;-70
2022/04/15 10:17:37;;;;;;;10.30;7.75;;;;;;;13.42;60.73;102013.13;5041272;27;99349;-70
2022/04/15 10:20:08;;;;;;;12.82;7.70;;;;;;;13.60;61.00;102019.69;5037822;27;99937;-70
2022/04/15 10:22:38;;;;;;;7.68;6.80;;;;;;;13.53;60.92;102015.47;5040140;27;98624;-70
2022/04/15 10:25:06;;;;;;;12.45;6.97;;;;;;;13.23;62.10;102011.00;5041053;27;97026;-70
2022/04/15 10:27:32;;;;;;;11.07;7.05;;;;;;;13.43;61.28;102008.69;5040743;27;99035;-70
2022/04/15 10:30:05;;;;;;;9.88;7.53;;;;;;;13.45;61.53;102010.41;5044053;27;97689;-70
2022/04/15 10:32:55;;;;;;;11.55;7.07;;;;;;;13.51;61.99;102015.53;5044959;27;98256;-70
2022/04/15 10:35:28;;;;;;;14.68;7.60;;;;;;;14.25;60.13;102016.91;5038600;27;98849;-69
2022/04/15 10:37:57;;;;;;;10.60;7.18;;;;;;;12.94;62.76;102015.22;5042052;27;99142;-70
2022/04/15 10:40:26;;;;;;;11.48;7.85;;;;;;;13.84;61.40;102018.16;5038593;27;101011;-69
2022/04/15 10:42:53;;;;;;;11.57;6.97;;;;;;;14.08;60.59;102027.19;5041826;27;99141;-70
2022/04/15 10:45:26;;;;;;;8.75;6.70;;;;;;;14.27;59.20;102021.25;5042576;27;98883;-69
2022/04/15 10:48:00;;;;;;;9.23;6.47;;;;;;;14.19;59.53;102025.06;5042698;27;99796;-70
2022/04/15 10:50:28;;;;;;;10.70;6.22;;;;;;;14.44;59.19;102015.44;5040799;27;98953;-70
2022/04/15 10:53:34;;;;;;;8.25;5.80;;;;;;;14.64;58.42;102010.38;5032006;27;97740;-70
2022/04/15 10:56:09;;;;;;;8.60;6.63;;;;;;;14.83;58.04;102020.44;5024121;28;97682;-70
2022/04/15 11:01:52;;;;;;;7.25;5.30;;;;;;;13.90;60.12;102025.94;5027254;28;97604;-72
2022/04/15 11:04:24;;;;;;;8.30;5.68;;;;;;;14.20;59.51;102021.50;5030928;28;97820;-71
2022/04/15 11:06:51;;;;;;;8.48;5.05;;;;;;;14.33;59.17;102022.84;5030657;28;97346;-71
2022/04/15 11:09:23;;;;;;;7.93;5.20;;;;;;;14.45;58.39;102026.97;5026207;28;99383;-71
2022/04/15 11:11:53;;;;;;;8.20;4.63;;;;;;;14.16;59.08;102028.72;5026943;28;97616;-71
2022/04/15 11:14:33;;;;;;;4.25;3.53;;;;;;;14.00;59.55;102029.19;5026847;28;98739;-70
2022/04/15 11:17:00;;;;;;;8.43;4.25;;;;;;;13.68;61.61;102032.78;5023136;27;97359;-70
2022/04/15 11:19:30;;;;;;;5.03;3.70;;;;;;;14.31;59.91;102032.66;5023286;28;99375;-70
2022/04/15 11:22:00;;;;;;;9.27;4.10;;;;;;;14.49;59.45;102033.94;5024412;27;99115;-71
2022/04/15 11:24:30;;;;;;;5.78;4.22;;;;;;;14.60;58.93;102035.34;5024408;28;97099;-70
2022/04/15 11:26:58;;;;;;;11.45;4.05;;;;;;;14.86;58.32;102030.94;5030217;28;98872;-71
2022/04/15 11:29:29;;;;;;;6.35;4.85;;;;;;;14.35;59.36;102037.00;5027842;27;99521;-70